Date,TemperatureHighF,TemperatureAvgF,TemperatureLowF,DewpointHighF,DewpointAvgF,DewpointLowF,HumidityHigh,HumidityAvg,HumidityLow,PressureMaxIn,PressureMinIn,WindSpeedMaxMPH,WindSpeedAvgMPH,GustSpeedMaxMPH,PrecipitationSumIn
2013-1-1,39,36,31,31,29,22,81,75,67,30.02,29.90,10,6,0,0.00
2013-1-2,31,27,24,23,18,16,76,69,61,30.23,29.99,16,6,0,0.00
2013-1-3,32,26,21,21,18,15,80,71,61,30.24,30.13,12,5,0,0.00
2013-1-4,36,32,28,24,22,20,74,68,60,30.17,30.05,18,8,0,0.00
2013-1-5,36,31,28,25,23,20,77,70,61,30.38,30.10,14,7,0,0.00
2013-1-6,46,36,28,34,29,24,100,77,53,30.23,30.02,10,4,0,0.00
2013-1-7,42,38,31,32,29,25,79,71,61,30.42,30.11,13,6,0,0.00
2013-1-8,45,37,30,35,30,25,88,77,64,30.43,30.37,13,5,0,0.00
2013-1-9,45,41,35,40,36,32,90,83,72,30.40,30.21,11,5,0,0.00
2013-1-10,44,40,37,35,30,28,79,67,58,30.57,30.33,15,7,0,0.00
2013-1-11,44,40,35,42,35,27,98,83,68,30.51,30.09,12,5,0,0.00
2013-1-12,53,45,40,51,44,39,99,96,87,30.17,30.09,6,2,0,0.00
2013-1-13,47,43,39,46,43,38,100,99,97,30.14,29.98,11,6,0,0.00
2013-1-14,52,48,39,52,45,36,100,90,67,30.28,29.93,12,6,0,0.00
2013-1-15,40,36,32,39,34,30,96,91,79,30.32,30.18,8,4,0,0.00
2013-1-16,36,33,32,35,32,30,98,97,94,30.19,29.85,12,3,0,0.00
2013-1-17,40,38,35,38,31,29,98,78,67,30.12,29.96,15,6,0,0.00
2013-1-18,35,29,25,30,19,10,81,65,46,30.49,30.02,19,8,0,0.00
2013-1-19,45,37,26,32,28,18,86,70,57,30.42,29.94,15,11,0,0.00
2013-1-20,52,41,28,33,26,16,72,58,36,30.06,29.78,23,12,0,0.00
2013-1-21,31,26,23,24,16,12,92,66,54,30.11,29.86,15,7,0,0.00
2013-1-22,23,16,12,14,2,-2,71,53,43,30.29,29.91,19,2,0,0.00
2013-1-23,20,14,10,10,2,-1,71,58,46,30.32,30.19,15,7,0,0.00
2013-1-24,22,17,13,12,6,0,87,62,37,30.48,30.14,18,8,0,0.00
2013-1-25,19,16,14,14,7,2,92,70,49,30.49,30.09,10,5,0,0.00
2013-1-26,24,18,10,16,13,8,93,80,67,30.44,30.10,14,7,0,0.00
2013-1-27,31,24,14,22,15,10,87,72,55,30.59,30.43,10,3,0,0.00
2013-1-28,35,30,25,34,29,20,98,93,79,30.53,30.06,0,0,0,0.00
2013-1-29,57,44,35,51,42,34,99,93,77,30.15,30.01,13,4,0,0.00
2013-1-30,64,53,42,60,51,41,99,96,85,30.01,29.27,23,12,0,0.00
2013-1-31,57,36,27,57,23,12,99,60,45,29.86,29.24,25,17,0,0.00
2013-2-1,27,24,18,23,12,7,91,60,47,30.33,29.84,21,3,0,0.00
2013-2-2,25,20,14,22,12,6,94,71,54,30.35,30.04,0,0,0,0.00
2013-2-3,29,25,21,26,23,19,100,89,73,30.04,29.83,17,2,0,0.00
2013-2-4,29,24,19,22,15,11,86,68,57,30.08,29.91,17,8,0,0.00
2013-2-5,32,29,26,30,27,23,96,91,86,29.96,29.88,8,4,0,0.00
2013-2-6,37,31,26,30,26,19,98,83,64,30.37,29.94,18,6,0,0.00
2013-2-7,34,30,26,25,19,14,75,64,45,30.48,30.25,11,6,0,0.00
2013-2-8,35,33,31,34,31,24,98,92,74,30.25,29.72,19,10,0,0.00
2013-2-9,31,27,22,27,19,15,88,73,63,30.39,29.83,28,18,0,0.00
2013-2-10,38,29,20,27,16,11,84,60,33,30.50,30.29,12,6,0,0.00
2013-2-11,47,39,32,47,38,25,99,94,76,30.30,29.69,14,9,0,0.00
2013-2-12,43,39,31,39,29,24,93,68,60,29.98,29.78,24,10,0,0.00
2013-2-13,41,34,28,32,28,24,97,79,64,29.96,29.68,9,4,0,0.00
2013-2-14,43,36,31,34,30,27,98,83,54,30.02,29.73,13,5,0,0.00
2013-2-15,53,41,32,38,33,29,96,77,50,30.03,29.92,13,6,0,0.00
2013-2-16,33,31,28,32,28,18,98,88,68,29.99,29.80,10,4,0,0.00
2013-2-17,28,25,20,18,13,4,75,60,44,30.12,29.79,26,17,0,0.00
2013-2-18,34,25,18,19,12,6,66,56,39,30.35,30.12,19,11,0,0.00
2013-2-19,40,35,28,39,30,16,97,82,59,30.19,29.71,20,12,0,0.00
2013-2-20,34,27,23,26,17,12,84,65,55,30.10,29.80,23,16,0,0.00
2013-2-21,32,26,22,19,16,12,71,64,56,30.32,30.08,21,14,0,0.00
2013-2-22,33,28,23,30,22,17,93,78,70,30.40,30.24,11,6,0,0.00
2013-2-23,42,38,32,42,37,30,99,98,93,30.25,29.81,7,5,0,0.00
2013-2-24,42,37,30,38,31,22,99,81,61,30.06,29.78,23,11,0,0.00
2013-2-25,43,35,28,30,25,21,76,68,55,30.23,30.06,12,7,0,0.00
2013-2-26,41,36,32,36,31,25,96,81,71,30.25,29.69,23,11,0,0.00
2013-2-27,50,43,37,43,38,34,98,85,67,29.70,29.50,23,11,0,0.00
2013-2-28,42,39,32,36,32,27,89,77,56,29.69,29.59,14,7,0,0.00
2013-3-1,41,37,32,32,30,26,92,76,66,29.84,29.67,14,9,0,0.00
2013-3-2,36,32,29,26,24,22,79,70,62,29.84,29.76,16,9,0,0.00
2013-3-3,33,30,26,25,22,18,83,71,63,29.84,29.76,17,13,0,0.00
2013-3-4,35,30,26,23,20,17,71,67,60,30.00,29.84,22,17,0,0.00
2013-3-5,44,34,26,30,25,20,87,70,54,30.06,29.91,16,7,0,0.00
2013-3-6,38,36,32,36,32,27,95,88,74,29.95,29.71,25,16,0,0.00
2013-3-7,43,38,33,30,27,25,78,66,54,30.11,29.95,17,11,0,0.00
2013-3-8,41,36,29,29,26,22,91,67,61,30.26,30.08,23,14,0,0.00
2013-3-9,56,44,32,31,25,22,69,51,34,30.32,30.24,12,6,0,0.00
2013-3-10,55,45,35,36,28,19,94,55,33,30.34,30.24,13,8,0,0.00
2013-3-11,53,45,37,49,42,36,99,92,79,30.27,30.02,14,10,0,0.00
2013-3-12,55,49,40,54,46,32,98,90,73,30.02,29.69,20,14,0,0.00
2013-3-13,45,39,33,34,29,20,80,68,47,29.99,29.86,19,9,0,0.00
2013-3-14,39,33,28,22,18,15,71,55,41,30.04,29.96,25,16,0,0.00
2013-3-15,50,38,26,33,22,14,68,54,41,30.05,29.77,17,7,0,0.00
2013-3-16,42,37,32,34,31,29,96,81,67,29.93,29.72,13,6,0,0.00
2013-3-17,38,33,31,31,27,21,96,80,58,30.29,29.93,11,4,0,0.00
2013-3-18,36,32,29,34,25,16,97,75,58,30.35,29.89,16,9,0,0.00
2013-3-19,50,39,34,39,32,20,98,79,35,29.89,29.71,19,10,0,0.00
2013-3-20,45,37,29,24,20,17,67,51,33,29.95,29.78,19,8,0,0.00
2013-3-21,36,31,26,28,19,11,93,63,44,29.83,29.70,16,10,0,0.00
2013-3-22,39,31,25,24,20,14,76,65,51,29.98,29.82,20,11,0,0.00
2013-3-23,44,35,28,27,23,21,77,62,47,29.98,29.91,19,12,0,0.00
2013-3-24,43,35,27,28,23,20,79,62,44,30.00,29.68,12,4,0,0.00
2013-3-25,35,33,31,33,30,27,97,90,71,29.70,29.49,13,7,0,0.00
2013-3-26,47,38,32,36,32,28,96,81,49,29.93,29.66,14,8,0,0.00
2013-3-27,46,40,35,33,30,27,80,67,52,30.06,29.93,20,12,0,0.00
2013-3-28,44,39,34,33,30,27,82,69,56,30.18,30.03,15,10,0,0.00
2013-3-29,49,43,35,34,30,27,79,61,47,30.21,30.12,14,8,0,0.00
2013-3-30,54,45,37,32,28,25,71,53,32,30.22,30.11,10,4,0,0.00
2013-3-31,50,44,38,45,36,-100,98,78,53,30.13,29.72,16,8,0,0.00
2013-4-1,60,46,37,46,36,15,99,72,38,29.95,29.69,25,10,0,0.00
2013-4-2,41,35,29,21,17,14,64,46,34,30.15,29.95,19,10,0,0.00
2013-4-3,44,35,28,20,17,12,63,48,30,30.35,30.15,22,10,0,0.00
2013-4-4,46,36,26,28,20,15,70,52,33,30.42,30.09,12,6,0,0.00
2013-4-5,59,46,36,37,29,17,96,58,28,30.09,29.79,17,8,0,0.00
2013-4-6,51,42,33,28,21,17,61,44,27,30.32,30.01,10,5,0,0.00
2013-4-7,60,48,37,44,37,26,84,65,51,30.29,30.00,22,12,0,0.00
2013-4-8,73,62,50,52,48,43,80,62,42,30.06,29.96,14,6,0,0.00
2013-4-9,80,69,56,55,53,50,80,59,38,30.03,29.91,18,7,0,0.00
2013-4-10,86,72,61,61,56,52,88,59,38,29.93,29.75,19,7,0,0.00
2013-4-11,77,62,49,63,57,46,97,83,58,29.88,29.79,19,8,0,0.00
2013-4-12,49,46,43,47,45,42,99,97,93,29.88,29.65,19,12,0,0.00
2013-4-13,59,50,42,43,40,37,98,73,45,29.96,29.76,13,6,0,0.00
2013-4-14,59,50,38,42,36,31,86,59,38,30.15,29.96,16,6,0,0.00
2013-4-15,58,51,46,47,41,34,83,68,52,30.31,30.13,15,10,0,0.00
2013-4-16,67,57,46,58,51,44,92,82,70,30.33,30.11,19,11,0,0.00
2013-4-17,68,60,54,57,53,46,98,80,49,30.25,30.09,12,5,0,0.00
2013-4-18,62,56,52,60,51,39,98,85,58,30.26,30.03,17,12,0,0.00
2013-4-19,73,63,52,66,60,49,99,91,76,30.03,29.59,19,13,0,0.00
2013-4-20,53,48,42,50,36,28,95,65,40,30.32,29.72,20,11,0,0.00
2013-4-21,51,42,33,35,27,22,81,56,39,30.61,30.32,12,6,0,0.00
2013-4-22,51,43,34,38,34,30,87,71,53,30.61,30.44,16,8,0,0.00
2013-4-23,53,46,41,44,40,35,89,79,69,30.44,30.14,13,7,0,0.00
2013-4-24,68,54,40,59,49,39,99,86,67,30.14,29.80,16,7,0,0.00
2013-4-25,62,50,40,56,35,31,85,57,37,30.29,29.89,25,10,0,0.00
2013-4-26,59,51,43,40,34,27,71,53,33,30.44,30.28,11,4,0,0.00
2013-4-27,66,56,45,39,33,28,56,43,28,30.44,30.29,8,4,0,0.00
2013-4-28,66,56,48,44,39,-100,81,57,39,30.29,30.17,15,7,0,0.00
2013-4-29,55,53,50,54,51,38,100,92,57,30.19,30.09,13,9,0,0.00
2013-4-30,65,57,50,53,48,32,98,76,44,30.30,30.13,13,8,0,0.00
2013-5-1,66,55,43,44,38,33,73,54,33,30.45,30.29,10,6,0,0.00
2013-5-2,67,56,42,47,43,40,95,66,40,30.45,30.32,10,4,0,0.00
2013-5-3,63,54,46,45,42,38,89,66,42,30.40,30.32,13,7,0,0.00
2013-5-4,66,54,39,46,41,37,96,67,37,30.35,30.20,12,5,0,0.00
2013-5-5,61,51,42,45,41,38,89,70,48,30.26,30.17,11,7,0,0.00
2013-5-6,65,53,42,56,49,38,98,86,72,30.21,30.10,11,6,0,0.00
2013-5-7,67,58,52,61,56,51,98,93,77,30.11,30.00,14,8,0,0.00
2013-5-8,69,61,56,61,56,51,98,85,57,30.02,29.92,10,6,0,0.00
2013-5-9,68,60,54,59,56,53,100,88,70,29.98,29.91,9,3,0,0.00
2013-5-10,77,65,55,62,56,-100,97,77,50,30.01,29.88,17,4,0,0.00
2013-5-11,73,64,60,65,62,59,98,92,72,29.93,29.70,18,5,0,0.00
2013-5-12,61,55,47,60,42,-100,97,65,38,29.99,29.71,19,10,0,0.00
2013-5-13,51,46,40,36,32,27,74,58,39,30.14,29.99,15,7,0,0.00
2013-5-14,57,47,35,43,32,29,79,58,35,30.20,30.06,13,4,0,0.00
2013-5-15,71,57,48,62,51,43,91,81,68,30.08,29.71,17,6,0,0.00
2013-5-16,78,64,63,66,40,-100,92,78,55,29.87,29.72,8,3,0,0.00
2013-5-17,73,65,59,59,42,-100,80,50,34,30.17,29.87,9,5,0,0.00
2013-5-18,66,61,57,57,54,48,95,78,59,30.25,30.17,12,8,0,0.00
2013-5-19,62,59,57,61,58,56,99,98,96,30.24,30.12,13,8,0,0.00
2013-5-20,76,70,62,70,67,62,100,90,78,30.11,29.98,10,4,0,0.00
2013-5-21,77,70,65,71,67,64,99,91,77,29.98,29.86,10,5,0,0.00
2013-5-22,82,74,67,74,70,66,99,88,68,29.92,29.83,12,6,0,0.00
2013-5-23,76,70,63,69,67,61,97,89,76,29.89,29.75,11,7,0,0.00
2013-5-24,63,54,44,62,50,38,99,87,70,30.07,29.71,18,10,0,0.00
2013-5-25,60,51,44,40,38,35,86,61,41,30.11,30.03,20,13,0,0.00
2013-5-26,67,56,45,42,38,35,73,53,34,30.21,30.09,20,9,0,0.00
2013-5-27,69,59,47,48,41,35,68,52,36,30.27,30.17,9,2,0,0.00
2013-5-28,65,60,55,64,56,46,98,88,64,30.20,30.09,8,4,0,0.00
2013-5-29,87,73,61,69,65,60,99,78,48,30.10,30.04,9,4,0,0.00
2013-5-30,88,78,67,70,66,63,92,71,46,30.15,30.09,9,3,0,0.00
2013-5-31,85,77,68,70,67,61,92,72,46,30.13,30.01,11,4,0,0.00
2013-6-1,84,77,68,73,68,65,91,76,60,30.03,29.91,9,6,0,0.00
2013-6-2,81,75,68,72,67,-100,93,80,67,29.91,29.80,11,7,0,0.00
2013-6-3,78,70,65,68,65,59,97,84,66,29.88,29.80,9,3,0,0.00
2013-6-4,71,63,54,59,48,44,81,60,41,30.11,29.89,11,5,0,0.00
2013-6-5,75,66,57,53,46,40,71,51,39,30.19,30.07,10,5,0,0.00
2013-6-6,69,63,56,63,56,51,97,80,52,30.11,29.93,15,9,0,0.00
2013-6-7,69,64,60,69,64,59,99,98,96,29.93,29.58,17,7,0,0.00
2013-6-8,74,66,61,65,62,59,98,87,69,30.09,29.62,12,6,0,0.00
2013-6-9,78,70,61,66,61,56,90,75,57,30.20,30.09,7,2,0,0.00
2013-6-10,74,69,65,73,68,62,99,96,82,30.14,29.77,16,7,0,0.00
2013-6-11,76,71,66,69,66,61,99,84,71,29.80,29.72,14,7,0,0.00
2013-6-12,78,72,62,68,64,60,92,77,64,29.84,29.79,14,6,0,0.00
2013-6-13,82,70,62,71,65,59,98,84,60,29.83,29.40,16,8,0,0.00
2013-6-14,74,63,55,61,56,53,95,77,53,29.94,29.51,14,5,0,0.00
2013-6-15,77,68,58,61,57,53,90,69,50,30.05,29.94,11,4,0,0.00
2013-6-16,79,70,61,68,61,52,94,74,59,30.01,29.85,7,1,0,0.00
2013-6-17,83,72,64,71,66,63,96,83,64,29.94,29.86,8,2,0,0.00
2013-6-18,75,67,62,71,65,61,97,93,83,29.92,29.79,1,0,0,0.00
2013-6-19,76,67,60,62,57,51,98,74,43,30.15,29.88,3,0,0,0.00
2013-6-20,77,66,58,60,56,52,88,72,52,30.27,30.15,4,0,0,0.00
2013-6-22,82,78,72,69,68,66,82,71,60,30.25,30.12,7,1,0,0.00
2013-6-23,80,73,66,73,69,64,96,88,72,30.19,30.06,5,0,0,0.00
2013-6-24,88,74,68,76,70,63,99,88,62,30.10,29.98,4,1,0,0.00
2013-6-25,87,75,66,75,69,64,95,82,57,30.03,29.86,7,1,0,0.00
2013-6-26,87,75,65,75,69,64,97,82,63,29.89,29.78,7,1,0,0.00
2013-6-27,83,73,68,74,70,67,98,91,71,29.81,29.56,9,1,0,0.00
2013-6-28,83,72,68,71,69,66,97,89,66,29.59,29.48,3,0,0,0.00
2013-6-29,84,74,65,69,67,64,98,79,55,29.69,29.49,7,1,0,0.00
2013-6-30,80,74,71,75,71,68,99,91,79,29.86,29.69,7,0,0,0.00
2013-7-1,77,74,70,74,72,69,98,95,88,29.99,29.84,0,0,0,0.00
2013-7-2,79,74,72,74,72,70,97,93,81,30.17,29.98,0,0,0,0.00
2013-7-3,83,75,70,76,72,69,99,92,77,30.24,30.16,7,0,0,0.00
2013-7-4,84,78,72,76,73,71,98,86,74,30.25,30.17,8,1,0,0.00
2013-7-5,84,78,73,76,74,72,98,86,73,30.22,30.11,10,1,0,0.00
2013-7-6,91,80,73,78,74,71,95,83,59,30.16,30.05,8,2,0,0.00
2013-7-7,89,78,69,77,72,68,96,84,66,30.08,29.96,9,2,0,0.00
2013-7-8,82,72,67,73,67,-100,98,91,70,30.09,30.02,6,2,0,0.00
2013-7-9,82,75,70,76,71,68,97,88,72,30.09,29.99,9,1,0,0.00
2013-7-10,84,76,72,77,71,-100,99,87,73,30.01,29.83,9,4,0,0.00
2013-7-11,81,75,71,74,70,65,97,85,70,29.91,29.82,7,2,0,0.00
2013-7-12,72,69,65,69,65,61,98,89,77,30.01,29.90,10,4,0,0.00
2013-7-13,84,74,68,75,71,67,99,91,73,30.29,30.01,7,1,0,0.00
2013-7-14,88,79,73,76,73,70,98,84,62,30.34,30.26,5,1,0,0.00
2013-7-15,90,79,70,77,73,68,96,81,63,30.28,30.16,8,2,0,0.00
2013-7-16,89,82,75,75,72,70,90,72,56,30.22,30.14,6,2,0,0.00
2013-7-17,90,82,73,76,71,68,87,71,53,30.19,30.08,5,2,0,0.00
2013-7-18,93,83,74,79,75,72,93,79,58,30.09,29.98,5,2,0,0.00
2013-7-19,92,83,77,82,77,67,95,82,64,29.99,29.83,10,3,0,0.00
2013-7-20,87,80,73,76,72,68,87,77,64,29.85,29.77,7,3,0,0.00
2013-7-21,82,78,74,74,72,71,91,84,71,29.93,29.88,4,1,0,0.00
2013-7-22,86,76,71,75,72,69,97,87,63,29.93,29.76,12,4,0,0.00
2013-7-23,81,74,69,74,70,68,99,89,70,29.76,29.60,14,4,0,0.00
2013-7-24,76,72,64,68,66,54,95,81,61,29.93,29.65,9,4,0,0.00
2013-7-25,71,63,55,63,57,52,91,81,71,30.04,29.92,6,3,0,0.00
2013-7-26,79,69,60,64,61,58,96,76,51,30.07,30.02,9,3,0,0.00
2013-7-27,79,72,63,71,66,62,99,83,69,30.05,29.92,13,7,0,0.00
2013-7-28,80,72,66,74,68,64,97,88,71,29.96,29.88,11,6,0,0.00
2013-7-29,76,70,63,68,60,55,98,75,50,30.14,29.94,11,4,0,0.00
2013-7-30,77,68,60,63,59,55,91,73,55,30.21,30.14,8,3,0,0.00
2013-7-31,78,71,63,68,63,58,87,76,66,30.15,30.02,7,3,0,0.00
2013-8-1,76,69,66,71,67,64,99,93,82,30.02,29.82,10,5,0,0.00
2013-8-2,81,72,64,68,66,63,99,82,56,29.93,29.82,8,3,0,0.00
2013-8-3,74,69,65,68,65,62,94,85,77,29.95,29.89,9,2,0,0.00
2013-8-4,74,67,61,63,59,55,97,76,53,30.00,29.88,14,6,0,0.00
2013-8-5,74,66,58,58,55,50,88,69,47,30.09,30.00,8,2,0,0.00
2013-8-6,69,65,61,65,60,53,98,84,66,30.10,30.03,12,6,0,0.00
2013-8-7,74,68,63,71,67,62,98,95,89,30.10,30.02,12,8,0,0.00
2013-8-8,81,74,67,75,71,66,99,92,78,30.05,29.98,14,6,0,0.00
2013-8-9,84,76,72,77,73,71,98,92,75,29.98,29.83,10,4,0,0.00
2013-8-10,79,74,68,72,66,64,95,79,61,30.06,29.89,10,4,0,0.00
2013-8-11,82,72,64,70,65,59,95,79,59,30.12,30.01,8,4,0,0.00
2013-8-12,83,74,68,72,68,66,98,85,57,30.03,29.92,7,2,0,0.00
2013-8-13,78,70,66,71,66,-100,98,90,74,29.91,29.72,9,4,0,0.00
2013-8-14,70,62,56,66,49,-100,89,69,55,30.07,29.78,16,9,0,0.00
2013-8-15,74,58,53,57,40,-100,91,69,46,30.18,30.06,2,0,0,0.00
2013-8-16,77,65,57,61,52,-100,88,70,47,30.21,30.13,8,1,0,0.00
2013-8-17,78,68,58,62,58,55,95,74,49,30.27,30.20,9,3,0,0.00
2013-8-18,71,65,62,62,58,-100,93,82,65,30.24,30.15,6,2,0,0.00
2013-8-19,73,62,59,67,49,-100,96,87,79,30.17,30.07,7,1,0,0.00
2013-8-20,82,71,61,71,64,-100,99,84,58,30.15,30.08,7,2,0,0.00
2013-8-21,84,74,64,73,69,63,98,84,59,30.19,30.06,8,2,0,0.00
2013-8-22,82,75,71,73,71,67,97,87,71,30.07,29.91,10,2,0,0.00
2013-8-23,72,69,64,69,65,59,94,88,75,30.10,29.91,6,3,0,0.00
2013-8-24,78,68,60,60,57,54,87,70,48,30.34,30.10,8,3,0,0.00
2013-8-25,78,66,58,65,57,-100,98,77,50,30.41,30.27,6,2,0,0.00
2013-8-26,83,71,61,69,63,56,89,76,56,30.28,29.97,6,2,0,0.00
2013-8-27,83,74,67,70,67,64,93,80,62,29.97,29.88,9,4,0,0.00
2013-8-28,79,73,69,73,70,68,98,93,80,29.87,29.81,9,4,0,0.00
2013-8-29,79,72,68,72,69,67,99,90,74,30.02,29.86,11,3,0,0.00
2013-8-30,79,72,66,73,69,65,98,91,78,30.02,29.88,9,4,0,0.00
2013-8-31,83,76,69,76,72,68,97,88,76,29.89,29.79,9,5,0,0.00
2013-9-1,84,76,70,75,70,-100,98,85,71,29.84,29.76,8,4,0,0.00
2013-9-2,84,76,70,75,72,66,98,89,67,29.78,29.71,11,4,0,0.00
2013-9-3,77,71,63,70,63,56,98,77,56,29.93,29.71,13,6,0,0.00
2013-9-4,78,67,58,61,57,55,91,72,47,30.05,29.93,9,4,0,0.00
2013-9-5,76,66,58,64,56,49,88,72,45,30.13,29.99,2,0,0,0.00
2013-9-6,68,60,51,50,46,41,78,61,37,30.26,30.13,6,2,0,0.00
2013-9-7,77,64,51,61,52,43,87,68,42,30.16,29.93,6,2,0,0.00
2013-9-8,78,69,60,67,60,-100,96,76,58,30.06,29.87,11,5,0,0.00
2013-9-9,72,63,51,63,56,46,93,78,62,30.21,30.06,10,3,0,0.00
2013-9-10,83,74,65,76,71,63,97,88,76,30.18,30.08,10,3,0,0.00
2013-9-11,87,78,71,78,73,70,99,85,62,30.14,30.00,11,4,0,0.00
2013-9-12,84,74,67,75,70,66,97,88,73,30.00,29.72,12,4,0,0.00
2013-9-13,71,65,59,67,58,51,98,79,54,29.90,29.67,13,7,0,0.00
2013-9-14,62,55,50,52,48,46,89,78,63,30.16,29.90,11,6,0,0.00
2013-9-15,69,55,45,56,48,-100,97,81,60,30.24,30.10,10,3,0,0.00
2013-9-16,68,61,56,59,56,51,96,84,62,30.25,30.04,10,4,0,0.00
2013-9-17,63,53,43,51,43,40,90,70,49,30.43,30.25,9,3,0,0.00
2013-9-18,53,48,47,46,45,44,93,89,81,30.36,30.21,7,1,0,0.00
2013-9-19,72,61,50,59,54,48,97,79,58,30.21,30.09,9,2,0,0.00
2013-9-20,74,64,55,62,58,54,96,81,58,30.09,29.98,10,4,0,0.00
2013-9-21,73,63,55,64,59,53,99,88,69,30.01,29.70,12,7,0,0.00
2013-9-22,64,59,53,60,51,-100,98,79,58,29.94,29.69,8,3,0,0.00
2013-9-23,61,54,47,49,45,41,84,72,60,30.08,29.94,11,5,0,0.00
2013-9-24,68,54,43,51,46,40,92,78,55,30.11,29.93,9,2,0,0.00
2013-9-25,70,59,48,52,47,41,82,67,43,29.98,29.89,4,1,0,0.00
2013-9-26,71,60,51,57,52,47,89,76,55,30.08,29.93,6,1,0,0.00
2013-9-27,69,61,56,58,55,51,96,81,55,30.26,30.09,5,2,0,0.00
2013-9-28,69,61,52,55,53,50,96,76,52,30.32,30.23,5,1,0,0.00
2013-9-29,69,59,52,57,51,-100,92,77,60,30.24,30.08,6,1,0,0.00
2013-9-30,70,59,50,56,53,48,97,81,55,30.09,29.99,6,1,0,0.00
2013-10-1,67,64,57,61,59,53,90,85,77,30.03,29.97,0,0,0,0.00
2013-10-2,79,68,57,64,61,56,96,79,58,30.05,29.98,12,3,0,0.00
2013-10-3,79,70,62,66,62,58,92,77,60,30.12,30.04,7,3,0,0.00
2013-10-4,82,71,63,68,65,62,98,83,61,30.08,29.99,7,1,0,0.00
2013-10-5,84,73,65,69,66,63,95,81,55,30.08,29.99,11,3,0,0.00
2013-10-6,80,70,65,71,67,64,99,90,73,30.04,29.95,12,8,0,0.00
2013-10-7,73,64,55,70,62,47,97,93,74,30.01,29.77,20,9,0,0.00
2013-10-8,63,55,48,49,46,44,89,73,55,30.30,30.01,9,3,0,0.00
2013-10-9,58,54,50,50,48,44,85,80,74,30.35,30.24,12,5,0,0.00
2013-10-10,57,54,51,56,52,48,98,94,81,30.24,29.99,11,8,0,0.00
2013-10-11,61,58,56,60,57,55,98,98,95,30.03,29.94,12,9,0,0.00
2013-10-12,68,62,58,60,55,49,95,78,60,30.19,30.01,16,10,0,0.00
2013-10-13,64,57,51,56,50,-100,92,80,65,30.35,30.19,15,9,0,0.00
2013-10-14,66,56,49,54,50,47,95,83,63,30.35,30.24,6,3,0,0.00
2013-10-15,69,58,49,54,49,42,96,75,38,30.25,30.10,9,3,0,0.00
2013-10-16,66,59,53,59,55,49,98,88,71,30.11,29.92,7,3,0,0.00
2013-10-17,69,63,59,64,61,58,99,94,79,29.92,29.72,12,5,0,0.00
2013-10-18,61,56,49,58,47,43,90,73,57,30.01,29.76,14,7,0,0.00
2013-10-19,62,54,46,53,48,42,94,79,61,30.01,29.78,13,5,0,0.00
2013-10-20,57,50,42,49,39,-100,87,68,51,30.09,29.82,15,8,0,0.00
2013-10-21,62,53,44,46,42,38,89,69,43,30.16,29.96,11,4,0,0.00
2013-10-22,58,52,44,50,46,34,96,82,65,29.97,29.80,9,4,0,0.00
2013-10-23,53,46,40,38,36,34,85,69,53,29.85,29.65,13,5,0,0.00
2013-10-24,46,40,36,38,32,28,88,72,54,30.09,29.84,15,6,0,0.00
2013-10-25,49,44,36,38,34,29,83,70,59,30.29,30.09,15,8,0,0.00
2013-10-26,52,43,33,35,32,29,86,66,47,30.29,29.93,15,5,0,0.00
2013-10-27,53,46,40,37,32,-100,77,61,50,30.16,29.92,14,5,0,0.00
2013-10-28,59,47,34,41,34,-100,87,65,49,30.29,30.15,5,1,0,0.00
2013-10-29,60,49,41,44,40,35,92,71,52,30.39,30.29,8,4,0,0.00
2013-10-30,54,50,44,53,49,42,98,96,92,30.35,30.18,9,4,0,0.00
2013-10-31,64,56,49,60,54,48,99,94,81,30.22,29.80,13,8,0,0.00
2013-11-1,69,62,57,63,58,54,97,87,61,29.79,29.57,19,7,0,0.00
2013-11-2,63,55,47,56,47,40,98,74,56,29.83,29.64,14,4,0,0.00
2013-11-3,49,43,33,43,32,-100,87,68,45,30.46,29.83,14,8,0,0.00
2013-11-4,42,36,28,28,22,19,73,57,39,30.65,30.47,11,3,0,0.00
2013-11-5,55,45,36,45,38,28,91,76,62,30.63,30.49,9,5,0,0.00
2013-11-6,61,53,45,52,48,43,93,85,69,30.49,30.08,11,8,0,0.00
2013-11-7,57,52,42,56,48,29,97,85,60,30.07,29.84,19,9,0,0.00
2013-11-8,45,40,34,34,28,26,76,64,53,30.29,30.02,20,9,0,0.00
2013-11-9,49,39,32,36,28,-100,81,68,51,30.35,30.02,12,5,0,0.00
2013-11-10,56,47,39,37,32,29,72,58,47,30.15,29.93,20,10,0,0.00
2013-11-11,54,45,38,40,34,29,78,65,47,30.26,30.00,13,7,0,0.00
2013-11-12,48,36,27,37,24,15,79,60,49,30.35,29.97,15,8,0,0.00
2013-11-13,37,30,24,22,19,15,75,62,47,30.45,30.35,16,7,0,0.00
2013-11-14,54,40,28,32,21,13,74,51,19,30.36,30.24,9,4,0,0.00
2013-11-15,58,44,35,35,32,23,91,64,26,30.27,30.18,6,2,0,0.00
2013-11-16,54,46,41,48,41,-100,97,85,69,30.33,30.25,10,5,0,0.00
2013-11-17,62,54,48,58,52,47,99,94,82,30.26,29.78,16,8,0,0.00
2013-11-18,61,56,47,59,40,27,97,58,32,29.89,29.67,18,9,0,0.00
2013-11-19,45,40,32,30,27,22,68,58,50,30.37,29.89,19,11,0,0.00
2013-11-20,44,34,27,24,20,12,80,57,29,30.59,30.36,7,3,0,0.00
2013-11-21,49,40,30,43,31,18,85,70,54,30.60,30.41,9,6,0,0.00
2013-11-22,53,48,46,50,46,42,96,91,86,30.40,29.98,12,5,0,0.00
2013-11-23,50,38,28,47,26,-100,90,64,48,30.12,30.01,22,14,0,0.00
2013-11-24,28,24,21,12,5,0,66,44,32,30.47,30.13,28,16,0,0.00
2013-11-25,31,25,18,20,13,10,72,62,45,30.56,30.36,11,7,0,0.00
2013-11-26,50,34,31,47,27,15,98,77,50,30.36,29.64,18,7,0,0.00
2013-11-27,56,38,28,56,35,18,99,89,63,29.91,29.45,28,16,0,0.00
2013-11-28,32,29,26,25,19,17,76,65,56,30.49,29.90,21,10,0,0.00
2013-12-2,48,41,36,36,33,30,86,74,57,30.03,29.89,6,2,0,0.00
2013-12-3,52,43,38,37,35,33,88,74,56,29.99,29.89,6,2,0,0.00
2013-12-4,51,47,39,47,41,34,96,81,72,30.10,30.01,9,5,0,0.00
2013-12-5,58,52,48,58,51,47,100,98,96,30.10,29.93,11,7,0,0.00
2013-12-6,59,47,34,59,46,33,100,98,95,30.16,29.88,12,8,0,0.00
2013-12-7,36,33,29,34,28,-100,97,85,73,30.53,30.09,12,7,0,0.00
2013-12-8,28,26,23,27,22,18,97,87,72,30.60,30.33,9,6,0,0.00
2013-12-9,34,32,28,34,31,27,99,98,97,30.31,30.03,8,3,0,0.00
2013-12-10,31,29,24,31,28,21,99,96,88,30.19,29.97,13,5,0,0.00
2013-12-11,32,24,17,21,18,14,89,76,61,30.40,30.20,8,3,0,0.00
2013-12-12,24,21,17,17,11,6,82,66,49,30.40,30.23,11,6,0,0.00
2013-12-13,34,27,17,19,14,7,63,58,52,30.34,30.20,13,5,0,0.00
2013-12-14,33,30,29,32,24,-100,98,80,55,30.38,29.75,14,7,0,0.00
2013-12-15,37,32,27,35,28,21,98,88,69,29.91,29.60,18,6,0,0.00
2013-12-16,30,24,21,24,15,10,80,67,60,30.23,29.91,16,8,0,0.00
2013-12-17,30,25,22,26,21,15,95,85,65,30.21,29.96,10,4,0,0.00
2013-12-18,34,28,21,23,21,19,94,78,57,30.22,29.98,15,7,0,0.00
2013-12-19,44,35,26,32,27,20,90,71,57,30.22,30.08,10,5,0,0.00
2013-12-20,48,44,39,42,34,30,80,68,60,30.11,30.00,10,6,0,0.00
2013-12-21,61,53,46,56,47,-100,90,84,77,30.01,29.90,17,9,0,0.00
2013-12-22,63,60,56,62,58,55,97,94,90,29.98,29.83,21,12,0,0.00
2013-12-23,59,51,36,58,48,29,99,91,73,30.19,29.92,18,9,0,0.00
2013-12-24,36,31,23,29,23,12,86,72,56,30.42,30.16,21,11,0,0.00
2013-12-25,27,23,18,17,13,9,80,65,54,30.56,30.42,14,6,0,0.00
2013-12-26,38,30,22,30,23,17,93,78,62,30.41,30.22,16,5,0,0.00
2013-12-27,44,34,25,24,22,19,80,61,36,30.40,30.31,10,4,0,0.00
2013-12-28,54,40,31,34,25,-100,69,57,38,30.32,30.11,11,5,0,0.00
2013-12-29,43,41,38,42,36,29,98,85,57,30.11,29.49,18,7,0,0.00
2013-12-30,42,35,26,39,29,17,96,79,64,30.18,29.77,17,8,0,0.00
2013-12-31,35,28,23,26,19,15,78,70,56,30.33,30.09,21,7,0,0.00
2014-1-1,38,30,21,28,23,15,84,74,64,30.42,30.20,10,5,0,0.00
2014-1-2,31,27,19,28,24,18,95,89,78,30.18,29.65,12,9,0,0.00